createdAt,value
2022-12-16T00:02:06.788Z,91.49
2022-12-16T00:04:33.793Z,91.42
2022-12-16T00:07:00.762Z,92.32
2022-12-16T00:09:27.695Z,90.58
2022-12-16T00:11:54.763Z,91.19
2022-12-16T00:14:21.685Z,92.54
2022-12-16T00:16:48.656Z,90.85
2022-12-16T00:19:15.598Z,91.84
2022-12-16T00:21:42.588Z,91.80
2022-12-16T00:24:09.477Z,91.06
2022-12-16T00:26:36.414Z,90.74
2022-12-16T00:29:05.684Z,90.25
2022-12-16T00:31:32.949Z,91.30
2022-12-16T00:34:00.079Z,91.05
2022-12-16T00:36:26.943Z,90.85
2022-12-16T00:38:53.920Z,90.27
2022-12-16T00:41:21.004Z,91.85
2022-12-16T00:43:48.376Z,91.57
2022-12-16T00:46:15.391Z,92.34
2022-12-16T00:48:42.381Z,91.45
2022-12-16T00:51:09.517Z,90.67
2022-12-16T00:53:36.618Z,91.07
2022-12-16T00:56:06.861Z,90.96
2022-12-16T00:58:33.817Z,90.69
2022-12-16T01:01:01.251Z,91.88
2022-12-16T01:03:28.796Z,91.58
2022-12-16T01:05:55.834Z,90.79
2022-12-16T01:08:23.008Z,90.72
2022-12-16T01:10:55.450Z,91.14
2022-12-16T01:13:24.852Z,91.32
2022-12-16T01:15:52.480Z,91.58
2022-12-16T01:18:19.880Z,91.39
2022-12-16T01:20:46.835Z,91.54
2022-12-16T01:23:13.746Z,90.71
2022-12-16T01:25:40.759Z,91.13
2022-12-16T01:28:07.723Z,91.14
2022-12-16T01:30:35.610Z,92.29
2022-12-16T01:33:02.582Z,92.57
2022-12-16T01:35:54.705Z,92.03
2022-12-16T01:38:16.547Z,92.02
2022-12-16T01:40:43.469Z,91.39
2022-12-16T01:43:14.711Z,90.85
2022-12-16T01:45:41.771Z,90.83
2022-12-16T01:48:34.464Z,90.21
2022-12-16T01:51:07.852Z,90.68
2022-12-16T01:53:39.202Z,92.17
2022-12-16T01:56:06.565Z,90.76
2022-12-16T01:58:38.082Z,91.16
2022-12-16T02:01:05.632Z,91.63
2022-12-16T02:03:36.643Z,91.04
2022-12-16T02:06:22.683Z,91.35
2022-12-16T02:09:23.105Z,91.02
2022-12-16T02:12:43.115Z,92.49
2022-12-16T02:15:50.758Z,91.87
2022-12-16T02:18:56.414Z,91.25
2022-12-16T02:22:01.225Z,93.24
2022-12-16T02:25:27.162Z,92.07
2022-12-16T02:28:19.015Z,92.20
2022-12-16T02:30:57.656Z,93.71
2022-12-16T02:33:39.776Z,93.65
2022-12-16T02:36:30.583Z,94.06
2022-12-16T02:39:02.469Z,92.52
2022-12-16T02:41:44.092Z,93.83
2022-12-16T02:44:12.612Z,92.62
2022-12-16T02:46:51.463Z,93.47
2022-12-16T02:49:21.773Z,93.82
2022-12-16T02:51:49.803Z,93.79
2022-12-16T02:54:18.257Z,94.32
2022-12-16T02:56:54.192Z,93.89
2022-12-16T02:59:36.981Z,94.56
2022-12-16T03:02:17.845Z,94.48
2022-12-16T03:04:55.322Z,94.88
2022-12-16T03:07:26.911Z,93.64
2022-12-16T03:09:55.823Z,94.43
2022-12-16T03:12:24.275Z,94.92
2022-12-16T03:14:53.800Z,93.49
2022-12-16T03:17:24.657Z,94.48
2022-12-16T03:20:17.843Z,94.00
2022-12-16T03:22:48.605Z,94.05
2022-12-16T03:25:16.613Z,93.25
2022-12-16T03:28:00.641Z,93.70
2022-12-16T03:30:35.267Z,93.76
2022-12-16T03:33:09.850Z,93.27
2022-12-16T03:35:42.790Z,93.72
2022-12-16T03:38:12.599Z,93.77
2022-12-16T03:40:42.883Z,93.35
2022-12-16T03:43:15.088Z,93.23
2022-12-16T03:45:46.011Z,94.55
2022-12-16T03:48:14.198Z,94.50
2022-12-16T03:50:41.327Z,93.50
2022-12-16T03:53:08.565Z,93.40
2022-12-16T03:55:35.662Z,94.13
2022-12-16T03:58:02.597Z,93.94
2022-12-16T04:00:30.223Z,93.50
2022-12-16T04:02:57.554Z,93.25
2022-12-16T04:05:24.846Z,93.13
2022-12-16T04:07:51.794Z,92.92
2022-12-16T04:10:38.892Z,94.19
2022-12-16T04:13:24.503Z,92.44
2022-12-16T04:16:10.262Z,93.54
2022-12-16T04:18:56.202Z,92.60
2022-12-16T04:21:41.948Z,92.20
2022-12-16T04:24:21.740Z,92.54
2022-12-16T04:27:11.922Z,92.80
2022-12-16T04:30:00.354Z,91.86
2022-12-16T04:32:27.311Z,93.66
2022-12-16T04:34:54.233Z,93.27
2022-12-16T04:37:39.591Z,92.33
2022-12-16T04:40:25.759Z,92.48
2022-12-16T04:43:11.289Z,93.23
2022-12-16T04:45:58.135Z,92.35
2022-12-16T04:48:44.025Z,92.84
2022-12-16T04:51:29.576Z,93.11
2022-12-16T04:54:14.903Z,93.25
2022-12-16T04:57:00.192Z,92.45
2022-12-16T04:59:45.578Z,91.86
2022-12-16T05:02:31.123Z,92.85
2022-12-16T05:05:16.641Z,93.42
2022-12-16T05:08:02.182Z,93.06
2022-12-16T05:10:47.456Z,93.19
2022-12-16T05:13:33.243Z,92.86
2022-12-16T05:16:18.986Z,92.91
2022-12-16T05:19:04.746Z,92.30
2022-12-16T05:21:50.436Z,91.46
2022-12-16T05:24:38.032Z,91.50
2022-12-16T05:27:23.462Z,91.99
2022-12-16T05:30:08.940Z,92.60
2022-12-16T05:32:54.360Z,92.57
2022-12-16T05:35:41.077Z,92.56
2022-12-16T05:38:26.582Z,92.10
2022-12-16T05:41:11.986Z,92.99
2022-12-16T05:43:57.663Z,92.26
2022-12-16T05:46:43.110Z,93.24
2022-12-16T05:49:28.891Z,92.03
2022-12-16T05:52:14.492Z,92.61
2022-12-16T05:55:00.106Z,92.22
2022-12-16T05:57:45.670Z,92.00
2022-12-16T06:00:31.763Z,91.56
2022-12-16T06:03:17.617Z,91.86
2022-12-16T06:06:02.995Z,91.23
2022-12-16T06:08:48.323Z,92.16
2022-12-16T06:11:33.806Z,92.67
2022-12-16T06:14:18.996Z,91.50
2022-12-16T06:17:04.391Z,92.37
2022-12-16T06:19:49.604Z,92.84
2022-12-16T06:22:35.019Z,91.95
2022-12-16T06:25:20.451Z,92.52
2022-12-16T06:28:12.784Z,91.70
2022-12-16T06:30:58.163Z,92.67
2022-12-16T06:33:57.492Z,92.53
2022-12-16T06:36:43.050Z,91.49
2022-12-16T06:39:28.455Z,91.25
2022-12-16T06:42:13.801Z,92.50
2022-12-16T06:44:59.385Z,91.69
2022-12-16T06:47:44.867Z,90.89
2022-12-16T06:50:30.159Z,91.59
2022-12-16T06:53:15.750Z,91.83
2022-12-16T06:56:01.220Z,91.63
2022-12-16T06:58:46.490Z,90.94
2022-12-16T07:01:32.034Z,91.87
2022-12-16T07:04:17.475Z,90.50
2022-12-16T07:07:02.945Z,91.98
2022-12-16T07:09:48.537Z,90.29
2022-12-16T07:12:34.213Z,89.69
2022-12-16T07:15:19.661Z,89.84
2022-12-16T07:18:04.930Z,90.78
2022-12-16T07:20:50.638Z,91.81
2022-12-16T07:23:36.373Z,90.51
2022-12-16T07:26:21.942Z,90.26
2022-12-16T07:29:07.574Z,90.45
2022-12-16T07:31:53.234Z,90.63
2022-12-16T07:34:42.853Z,90.61
2022-12-16T07:37:30.200Z,91.21
2022-12-16T07:40:15.489Z,90.80
2022-12-16T07:43:01.945Z,89.76
2022-12-16T07:45:47.652Z,90.26
2022-12-16T07:48:32.955Z,90.28
2022-12-16T07:51:18.402Z,90.96
2022-12-16T07:54:03.684Z,90.80
2022-12-16T07:56:50.395Z,90.69
2022-12-16T07:59:36.061Z,89.54
2022-12-16T08:02:21.619Z,89.99
2022-12-16T08:05:07.210Z,90.87
2022-12-16T08:07:52.647Z,90.90
2022-12-16T08:10:38.279Z,90.64
2022-12-16T08:13:26.029Z,88.84
2022-12-16T08:16:11.367Z,89.40
2022-12-16T08:18:57.129Z,88.34
2022-12-16T08:21:42.371Z,88.51
2022-12-16T08:24:27.853Z,89.14
2022-12-16T08:27:13.421Z,88.85
2022-12-16T08:29:58.986Z,89.50
2022-12-16T08:32:44.566Z,89.28
2022-12-16T08:35:29.966Z,89.10
2022-12-16T08:38:16.064Z,89.16
2022-12-16T08:41:02.787Z,88.69
2022-12-16T08:43:52.924Z,88.04
2022-12-16T08:46:39.189Z,89.55
2022-12-16T08:49:25.127Z,89.54
2022-12-16T08:52:10.734Z,89.78
2022-12-16T08:54:56.104Z,88.93
2022-12-16T08:57:42.151Z,89.47
2022-12-16T09:00:28.488Z,89.80
2022-12-16T09:03:16.001Z,89.09
2022-12-16T09:06:02.187Z,89.08
2022-12-16T09:08:47.765Z,89.32
2022-12-16T09:11:33.210Z,89.17
2022-12-16T09:14:18.445Z,88.00
2022-12-16T09:17:03.932Z,89.36
2022-12-16T09:19:49.372Z,87.26
2022-12-16T09:22:34.861Z,87.44
2022-12-16T09:25:34.007Z,86.72
2022-12-16T09:28:19.814Z,86.77
2022-12-16T09:31:04.969Z,86.75
2022-12-16T09:33:50.304Z,87.07
2022-12-16T09:36:36.194Z,87.02
2022-12-16T09:39:21.456Z,86.02
2022-12-16T09:42:44.208Z,87.16
2022-12-16T09:45:38.122Z,85.68
2022-12-16T09:49:05.246Z,86.65
2022-12-16T09:51:57.199Z,86.09
2022-12-16T09:54:48.469Z,86.86
2022-12-16T09:57:34.671Z,87.03
2022-12-16T10:00:24.510Z,87.68
2022-12-16T10:03:10.840Z,89.06
2022-12-16T10:06:26.320Z,89.56
2022-12-16T10:09:39.386Z,89.00
2022-12-16T10:12:43.737Z,88.62
2022-12-16T10:15:57.941Z,86.48
2022-12-16T10:19:04.140Z,86.75
2022-12-16T10:22:07.741Z,86.40
2022-12-16T10:25:09.877Z,86.97
2022-12-16T10:28:06.597Z,87.79
2022-12-16T10:30:55.564Z,86.77
2022-12-16T10:33:46.535Z,86.68
2022-12-16T10:36:39.548Z,86.99
2022-12-16T10:39:56.565Z,87.69
2022-12-16T10:42:47.094Z,86.64
2022-12-16T10:45:49.817Z,87.25
2022-12-16T10:48:53.616Z,87.86
2022-12-16T10:51:45.321Z,86.56
2022-12-16T10:54:39.675Z,86.06
2022-12-16T10:57:28.141Z,84.86
2022-12-16T11:00:28.927Z,85.18
2022-12-16T11:03:14.677Z,86.07
2022-12-16T11:06:00.393Z,86.65
2022-12-16T11:08:50.245Z,85.91
2022-12-16T11:11:47.201Z,86.49
2022-12-16T11:14:33.963Z,87.97
2022-12-16T11:17:40.916Z,86.41
2022-12-16T11:20:29.513Z,86.34
2022-12-16T11:23:39.306Z,86.83
2022-12-16T11:26:36.298Z,87.22
2022-12-16T11:29:25.587Z,86.72
2022-12-16T11:32:35.524Z,87.33
2022-12-16T11:35:23.282Z,86.17
2022-12-16T11:38:11.977Z,85.84
2022-12-16T11:40:58.403Z,87.02
2022-12-16T11:43:46.986Z,86.09
2022-12-16T11:47:07.005Z,86.21
2022-12-16T11:49:52.798Z,86.07
2022-12-16T11:52:40.299Z,85.08
2022-12-16T11:58:57.041Z,84.79
2022-12-16T12:01:50.837Z,85.01
2022-12-16T12:04:36.742Z,87.47
2022-12-16T12:07:45.383Z,86.47
2022-12-16T12:11:03.145Z,87.80
2022-12-16T12:14:07.386Z,87.40
2022-12-16T12:17:19.174Z,87.33
2022-12-16T12:20:36.372Z,88.77
2022-12-16T12:23:25.963Z,88.88
2022-12-16T12:26:28.305Z,87.77
2022-12-16T12:29:32.334Z,88.73
2022-12-16T12:32:39.490Z,88.69
2022-12-16T12:35:38.017Z,88.10
2022-12-16T12:38:34.472Z,88.09
2022-12-16T12:41:27.655Z,87.95
2022-12-16T12:44:24.768Z,88.96
2022-12-16T12:47:18.774Z,88.04
2022-12-16T12:50:16.474Z,88.64
2022-12-16T12:53:20.659Z,88.79
2022-12-16T12:56:28.491Z,88.59
2022-12-16T12:59:21.571Z,89.38
2022-12-16T13:02:11.048Z,89.84
2022-12-16T13:04:57.985Z,90.55
2022-12-16T13:07:43.442Z,89.93
2022-12-16T13:10:53.935Z,88.93
2022-12-16T13:13:47.244Z,88.42
2022-12-16T13:17:05.460Z,89.88
2022-12-16T13:19:51.637Z,90.23
2022-12-16T13:22:58.366Z,90.26
2022-12-16T13:25:52.669Z,91.31
2022-12-16T13:29:01.247Z,90.67
2022-12-16T13:31:49.068Z,90.61
2022-12-16T13:34:34.797Z,90.15
2022-12-16T13:37:29.826Z,89.40
2022-12-16T13:40:35.585Z,88.52
2022-12-16T13:43:23.885Z,89.48
2022-12-16T13:46:19.024Z,87.58
2022-12-16T13:49:04.872Z,88.61
2022-12-16T13:51:56.261Z,88.55
2022-12-16T13:54:57.641Z,88.74
2022-12-16T13:57:45.821Z,89.83
2022-12-16T14:00:41.688Z,88.52
2022-12-16T14:04:04.178Z,88.92
2022-12-16T14:06:51.162Z,88.48
2022-12-16T14:09:50.914Z,90.00
2022-12-16T14:13:15.083Z,89.43
2022-12-16T14:16:27.567Z,90.04
2022-12-16T14:19:51.378Z,89.51
2022-12-16T14:22:57.851Z,90.44
2022-12-16T14:25:43.194Z,90.59
2022-12-16T14:28:58.475Z,90.43
2022-12-16T14:31:52.663Z,92.34
2022-12-16T14:34:54.057Z,91.66
2022-12-16T14:37:55.708Z,90.59
2022-12-16T14:40:49.949Z,90.48
2022-12-16T14:43:45.157Z,90.73
2022-12-16T14:46:51.625Z,91.25
2022-12-16T14:49:39.639Z,90.62
2022-12-16T14:52:45.531Z,90.88
2022-12-16T14:55:35.438Z,89.37
2022-12-16T14:58:23.934Z,89.62
2022-12-16T15:01:15.473Z,89.62
2022-12-16T15:04:06.490Z,90.54
2022-12-16T15:07:04.865Z,89.35
2022-12-16T15:09:56.521Z,89.52
2022-12-16T15:12:46.402Z,89.22
2022-12-16T15:15:49.954Z,89.38
2022-12-16T15:19:03.417Z,90.50
2022-12-16T15:21:52.852Z,89.95
2022-12-16T15:24:43.030Z,89.07
2022-12-16T15:27:40.583Z,88.90
2022-12-16T15:30:53.194Z,89.05
2022-12-16T15:33:42.079Z,89.87
2022-12-16T15:36:38.859Z,90.15
2022-12-16T15:39:43.105Z,90.48
2022-12-16T15:42:40.317Z,89.44
2022-12-16T15:45:57.605Z,90.61
2022-12-16T15:48:47.769Z,90.53
2022-12-16T15:51:45.541Z,90.32
2022-12-16T15:54:43.138Z,89.51
2022-12-16T15:57:49.180Z,90.34
2022-12-16T16:00:41.238Z,88.92
2022-12-16T16:03:36.637Z,90.12
2022-12-16T16:06:22.496Z,90.02
2022-12-16T16:09:11.329Z,89.07
2022-12-16T16:11:56.711Z,88.86
2022-12-16T16:14:42.467Z,89.57
2022-12-16T16:17:39.982Z,89.17
2022-12-16T16:20:26.390Z,88.53
2022-12-16T16:23:12.047Z,89.56
2022-12-16T16:26:03.490Z,89.74
2022-12-16T16:28:49.311Z,89.87
2022-12-16T16:31:35.243Z,88.58
2022-12-16T16:34:20.954Z,88.86
2022-12-16T16:37:13.138Z,88.80
2022-12-16T16:39:58.545Z,89.38
2022-12-16T16:42:44.685Z,89.35
2022-12-16T16:45:30.871Z,90.00
2022-12-16T16:48:39.161Z,88.93
2022-12-16T16:51:24.701Z,89.31
2022-12-16T16:54:10.088Z,89.58
2022-12-16T16:56:57.243Z,89.37
2022-12-16T16:59:43.380Z,89.63
2022-12-16T17:02:41.500Z,89.72
2022-12-16T17:05:28.742Z,89.57
2022-12-16T17:08:14.367Z,90.52
2022-12-16T17:10:59.840Z,89.63
2022-12-16T17:13:45.223Z,90.27
2022-12-16T17:16:33.384Z,90.83
2022-12-16T17:19:21.837Z,90.86
2022-12-16T17:22:07.564Z,90.33
2022-12-16T17:24:54.595Z,90.36
2022-12-16T17:27:43.937Z,89.42
2022-12-16T17:30:38.808Z,89.99
2022-12-16T17:33:27.563Z,89.64
2022-12-16T17:36:13.284Z,89.76
2022-12-16T17:39:01.303Z,89.95
2022-12-16T17:41:49.756Z,90.75
2022-12-16T17:44:36.306Z,90.30
2022-12-16T17:47:23.353Z,90.15
2022-12-16T17:50:08.656Z,90.77
2022-12-16T17:52:54.515Z,91.04
2022-12-16T17:55:40.103Z,91.46
2022-12-16T17:58:25.510Z,91.05
2022-12-16T18:01:11.335Z,91.81
2022-12-16T18:03:56.902Z,90.55
2022-12-16T18:06:42.604Z,92.00
2022-12-16T18:09:28.365Z,90.07
2022-12-16T18:12:13.927Z,91.08
2022-12-16T18:14:59.239Z,90.41
2022-12-16T18:17:44.811Z,91.18
2022-12-16T18:20:30.363Z,90.97
2022-12-16T18:23:15.872Z,89.98
2022-12-16T18:26:01.449Z,89.54
2022-12-16T18:28:47.036Z,89.95
2022-12-16T18:31:32.315Z,90.91
2022-12-16T18:34:17.982Z,89.81
2022-12-16T18:37:03.679Z,91.38
2022-12-16T18:39:49.278Z,90.02
2022-12-16T18:42:35.038Z,91.61
2022-12-16T18:45:20.703Z,90.22
2022-12-16T18:48:06.115Z,90.65
2022-12-16T18:50:51.631Z,91.47
2022-12-16T18:53:37.620Z,90.75
2022-12-16T18:56:26.328Z,91.51
2022-12-16T18:59:12.240Z,90.51
2022-12-16T19:01:58.715Z,90.87
2022-12-16T19:04:44.510Z,90.78
2022-12-16T19:07:33.575Z,91.62
2022-12-16T19:10:19.437Z,92.42
2022-12-16T19:13:04.734Z,91.21
2022-12-16T19:15:50.260Z,92.26
2022-12-16T19:18:35.880Z,91.39
2022-12-16T19:21:21.661Z,92.56
2022-12-16T19:24:07.720Z,92.26
2022-12-16T19:26:53.342Z,91.92
2022-12-16T19:29:53.287Z,92.56
2022-12-16T19:32:39.136Z,92.47
2022-12-16T19:35:24.758Z,92.19
2022-12-16T19:38:11.878Z,91.97
2022-12-16T19:40:57.530Z,93.69
2022-12-16T19:43:43.046Z,92.91
2022-12-16T19:46:28.515Z,94.21
2022-12-16T19:49:14.293Z,94.02
2022-12-16T19:52:00.089Z,94.68
2022-12-16T19:54:45.578Z,94.74
2022-12-16T19:57:31.075Z,93.11
2022-12-16T20:00:16.721Z,93.15
2022-12-16T20:03:02.274Z,93.24
2022-12-16T20:05:47.756Z,94.03
2022-12-16T20:08:33.982Z,93.80
2022-12-16T20:11:27.504Z,93.19
2022-12-16T20:14:15.110Z,93.37
2022-12-16T20:17:01.044Z,93.50
2022-12-16T20:19:47.396Z,93.70
2022-12-16T20:22:32.847Z,94.02
2022-12-16T20:25:18.324Z,94.87
2022-12-16T20:28:03.861Z,95.50
2022-12-16T20:30:49.151Z,95.55
2022-12-16T20:33:35.405Z,95.38
2022-12-16T20:36:23.117Z,95.28
2022-12-16T20:39:08.434Z,94.73
2022-12-16T20:41:56.227Z,96.04
2022-12-16T20:44:42.081Z,95.22
2022-12-16T20:47:27.353Z,95.46
2022-12-16T20:50:13.034Z,95.53
2022-12-16T20:52:58.357Z,95.88
2022-12-16T20:55:43.967Z,96.43
2022-12-16T20:58:29.376Z,96.41
2022-12-16T21:01:15.337Z,95.21
2022-12-16T21:04:00.943Z,96.21
2022-12-16T21:06:46.306Z,94.38
2022-12-16T21:09:31.879Z,94.49
2022-12-16T21:12:17.479Z,95.50
2022-12-16T21:15:03.065Z,95.35
2022-12-16T21:17:48.618Z,96.21
2022-12-16T21:20:34.025Z,96.28
2022-12-16T21:23:20.950Z,96.47
2022-12-16T21:26:06.696Z,97.05
2022-12-16T21:28:52.389Z,96.50
2022-12-16T21:31:41.759Z,97.08
2022-12-16T21:34:27.385Z,96.53
2022-12-16T21:37:12.715Z,95.77
2022-12-16T21:39:58.013Z,96.86
2022-12-16T21:42:44.289Z,96.50
2022-12-16T21:45:30.713Z,96.11
2022-12-16T21:48:16.333Z,96.66
2022-12-16T21:51:01.615Z,96.94
2022-12-16T21:53:47.811Z,96.74
2022-12-16T21:56:33.824Z,96.87
2022-12-16T21:59:19.437Z,97.25
2022-12-16T22:02:04.994Z,97.18
2022-12-16T22:04:50.477Z,96.70
2022-12-16T22:07:36.031Z,96.45
2022-12-16T22:10:23.149Z,96.27
2022-12-16T22:13:08.644Z,96.13
2022-12-16T22:15:58.085Z,96.66
2022-12-16T22:18:46.411Z,96.90
2022-12-16T22:21:32.171Z,96.37
2022-12-16T22:24:18.804Z,97.05
2022-12-16T22:27:04.312Z,97.31
2022-12-16T22:29:50.634Z,97.58
2022-12-16T22:32:36.174Z,96.57
2022-12-16T22:35:21.752Z,96.92
2022-12-16T22:38:07.068Z,97.48
2022-12-16T22:40:52.843Z,96.89
2022-12-16T22:43:49.620Z,96.51
2022-12-16T22:46:35.822Z,96.38
2022-12-16T22:49:25.674Z,97.07
2022-12-16T22:52:10.955Z,96.79
2022-12-16T22:54:56.687Z,97.43
2022-12-16T22:57:41.972Z,97.01
2022-12-16T23:00:28.039Z,96.50
2022-12-16T23:03:36.068Z,97.03
2022-12-16T23:06:21.832Z,97.44
2022-12-16T23:09:07.254Z,97.05
2022-12-16T23:11:56.706Z,97.13
2022-12-16T23:14:43.342Z,96.58
2022-12-16T23:17:30.210Z,95.35
2022-12-16T23:20:15.456Z,96.01
2022-12-16T23:23:01.089Z,95.43
2022-12-16T23:25:46.570Z,96.07
2022-12-16T23:28:31.964Z,94.87
2022-12-16T23:31:17.835Z,95.69
2022-12-16T23:34:03.231Z,95.86
2022-12-16T23:36:49.100Z,94.76
2022-12-16T23:39:34.390Z,95.62
2022-12-16T23:42:20.038Z,94.68
2022-12-16T23:45:05.566Z,94.60
2022-12-16T23:47:51.090Z,94.26
2022-12-16T23:50:37.567Z,94.09
2022-12-16T23:53:24.453Z,95.11
2022-12-16T23:56:09.901Z,95.01
2022-12-16T23:58:56.238Z,94.39
